EGOW

RAF Woodvale Airport

Southport, United Kingdom
METAR EGOW 221650Z 14007KT 9999 SCT035 05/M05 Q1023 BLU
Observed Flight Rules
Feb-22 @ 16:50 UTC (15 hours ago) Visual Flight Rules
Wind Visibility Clouds
140° at 7 knots 10,000+ meters
  • Scattered at 3,500' AGL
Temperatures Readings
Current 5°C / 41°F
Dewpoint -5°C / 23°F
Humidity 49%
Altimeter 30.21" Hg
Pressure 1023 hPa
Elevation 12
METAR EGOW 221650Z 14007KT 9999 SCT035 05/M05 Q1023 BLU
Observed Flight Rules
Feb-22 @ 16:50 UTC
(15 hours ago)
VFR
Wind Visibility
140° at 7 knots 10,000+ meters
Clouds
  • Scattered at 3,500' AGL
Temperature Dewpoint
5°C / 41°F -5°C / 23°F
Humidity Altimeter Pressure
49% 30.21" Hg 1023 hPa